sensor_id;sensor_type;location;lat;lon;timestamp;pressure;altitude;pressure_sealevel;temperature;humidity
6389;BME280;3227;42.654;23.360;2023-09-19T00:01:39;94833.44;;;17.72;78.14
6389;BME280;3227;42.654;23.360;2023-09-19T00:04:07;94825.06;;;17.60;78.32
6389;BME280;3227;42.654;23.360;2023-09-19T00:06:35;94840.44;;;17.69;78.74
6389;BME280;3227;42.654;23.360;2023-09-19T00:09:02;94839.63;;;17.67;78.94
6389;BME280;3227;42.654;23.360;2023-09-19T00:11:29;94837.75;;;17.72;78.68
6389;BME280;3227;42.654;23.360;2023-09-19T00:13:56;94830.72;;;17.78;78.69
6389;BME280;3227;42.654;23.360;2023-09-19T00:16:24;94829.03;;;17.76;78.78
6389;BME280;3227;42.654;23.360;2023-09-19T00:18:51;94800.03;;;17.59;78.98
6389;BME280;3227;42.654;23.360;2023-09-19T00:21:19;94830.09;;;17.67;79.63
6389;BME280;3227;42.654;23.360;2023-09-19T00:23:47;94828.41;;;17.66;79.43
6389;BME280;3227;42.654;23.360;2023-09-19T00:26:14;94826.78;;;17.62;80.02
6389;BME280;3227;42.654;23.360;2023-09-19T00:28:43;94831.09;;;17.62;80.41
6389;BME280;3227;42.654;23.360;2023-09-19T00:31:10;94826.00;;;17.56;80.71
6389;BME280;3227;42.654;23.360;2023-09-19T00:33:37;94822.69;;;17.50;80.77
6389;BME280;3227;42.654;23.360;2023-09-19T00:36:04;94815.03;;;17.44;81.43
6389;BME280;3227;42.654;23.360;2023-09-19T00:38:32;94824.53;;;17.45;81.45
6389;BME280;3227;42.654;23.360;2023-09-19T00:40:59;94823.75;;;17.40;81.61
6389;BME280;3227;42.654;23.360;2023-09-19T00:43:26;94821.19;;;17.39;81.94
6389;BME280;3227;42.654;23.360;2023-09-19T00:45:55;94816.31;;;17.25;82.67
6389;BME280;3227;42.654;23.360;2023-09-19T00:48:24;94813.72;;;17.25;82.92
6389;BME280;3227;42.654;23.360;2023-09-19T00:50:54;94756.66;;;16.90;82.89
6389;BME280;3227;42.654;23.360;2023-09-19T00:53:23;94801.81;;;17.17;82.93
6389;BME280;3227;42.654;23.360;2023-09-19T00:55:54;94801.16;;;17.07;83.73
6389;BME280;3227;42.654;23.360;2023-09-19T00:58:22;94808.03;;;17.08;84.08
6389;BME280;3227;42.654;23.360;2023-09-19T01:00:49;94813.34;;;17.02;84.67
6389;BME280;3227;42.654;23.360;2023-09-19T01:03:17;94809.09;;;16.99;84.85
6389;BME280;3227;42.654;23.360;2023-09-19T01:05:43;94807.47;;;16.95;85.41
6389;BME280;3227;42.654;23.360;2023-09-19T01:08:11;94806.63;;;16.93;85.75
6389;BME280;3227;42.654;23.360;2023-09-19T01:10:41;94813.53;;;16.93;85.82
6389;BME280;3227;42.654;23.360;2023-09-19T01:13:18;94817.91;;;16.89;86.05
6389;BME280;3227;42.654;23.360;2023-09-19T01:15:53;94812.13;;;16.78;86.96
6389;BME280;3227;42.654;23.360;2023-09-19T01:18:30;94773.75;;;16.52;87.07
6389;BME280;3227;42.654;23.360;2023-09-19T01:21:07;94808.13;;;16.59;88.17
6389;BME280;3227;42.654;23.360;2023-09-19T01:23:52;94806.25;;;16.68;87.86
6389;BME280;3227;42.654;23.360;2023-09-19T01:26:32;94805.22;;;16.77;87.57
6389;BME280;3227;42.654;23.360;2023-09-19T01:29:26;94808.66;;;16.78;87.32
6389;BME280;3227;42.654;23.360;2023-09-19T01:32:04;94805.19;;;16.79;87.16
6389;BME280;3227;42.654;23.360;2023-09-19T01:34:43;94812.78;;;16.88;87.05
6389;BME280;3227;42.654;23.360;2023-09-19T01:37:12;94762.41;;;16.59;86.73
6389;BME280;3227;42.654;23.360;2023-09-19T01:39:39;94799.78;;;16.89;86.76
6389;BME280;3227;42.654;23.360;2023-09-19T01:42:13;94802.63;;;16.77;87.71
6389;BME280;3227;42.654;23.360;2023-09-19T01:44:52;94793.16;;;16.78;87.62
6389;BME280;3227;42.654;23.360;2023-09-19T01:47:32;94793.88;;;16.84;87.28
6389;BME280;3227;42.654;23.360;2023-09-19T01:50:07;94796.34;;;16.89;87.21
6389;BME280;3227;42.654;23.360;2023-09-19T01:52:45;94797.25;;;16.88;87.01
6389;BME280;3227;42.654;23.360;2023-09-19T01:55:14;94795.41;;;16.93;86.97
6389;BME280;3227;42.654;23.360;2023-09-19T01:57:49;94801.47;;;16.92;87.13
6389;BME280;3227;42.654;23.360;2023-09-19T02:00:21;94798.13;;;16.87;87.03
6389;BME280;3227;42.654;23.360;2023-09-19T02:02:51;94804.13;;;16.89;86.92
6389;BME280;3227;42.654;23.360;2023-09-19T02:05:25;94725.66;;;16.42;86.95
6389;BME280;3227;42.654;23.360;2023-09-19T02:07:53;94813.53;;;16.93;86.90
6389;BME280;3227;42.654;23.360;2023-09-19T02:10:21;94815.13;;;17.00;86.25
6389;BME280;3227;42.654;23.360;2023-09-19T02:12:48;94815.78;;;17.09;85.38
6389;BME280;3227;42.654;23.360;2023-09-19T02:15:16;94813.09;;;17.14;84.76
6389;BME280;3227;42.654;23.360;2023-09-19T02:17:43;94809.63;;;17.15;83.95
6389;BME280;3227;42.654;23.360;2023-09-19T02:20:12;94814.78;;;17.15;84.46
6389;BME280;3227;42.654;23.360;2023-09-19T02:22:39;94816.63;;;17.10;84.56
6389;BME280;3227;42.654;23.360;2023-09-19T02:25:06;94808.69;;;17.19;84.06
6389;BME280;3227;42.654;23.360;2023-09-19T02:27:34;94813.88;;;17.18;83.68
6389;BME280;3227;42.654;23.360;2023-09-19T02:30:01;94818.22;;;17.17;83.75
6389;BME280;3227;42.654;23.360;2023-09-19T02:32:29;94804.38;;;17.18;83.41
6389;BME280;3227;42.654;23.360;2023-09-19T02:34:56;94794.09;;;17.15;83.53
6389;BME280;3227;42.654;23.360;2023-09-19T02:37:26;94790.56;;;17.19;83.91
6389;BME280;3227;42.654;23.360;2023-09-19T02:39:53;94792.28;;;17.20;83.19
6389;BME280;3227;42.654;23.360;2023-09-19T02:42:20;94791.38;;;17.21;83.45
6389;BME280;3227;42.654;23.360;2023-09-19T02:44:47;94759.72;;;17.07;83.59
6389;BME280;3227;42.654;23.360;2023-09-19T02:47:14;94767.50;;;17.07;83.64
6389;BME280;3227;42.654;23.360;2023-09-19T02:49:42;94784.56;;;17.17;83.92
6389;BME280;3227;42.654;23.360;2023-09-19T02:52:09;94779.34;;;17.19;83.71
6389;BME280;3227;42.654;23.360;2023-09-19T02:54:38;94777.63;;;17.18;83.79
6389;BME280;3227;42.654;23.360;2023-09-19T02:57:05;94766.47;;;17.14;83.89
6389;BME280;3227;42.654;23.360;2023-09-19T02:59:33;94702.78;;;16.67;84.07
6389;BME280;3227;42.654;23.360;2023-09-19T03:02:03;94775.22;;;17.10;84.31
6389;BME280;3227;42.654;23.360;2023-09-19T03:04:30;94764.84;;;17.11;84.46
6389;BME280;3227;42.654;23.360;2023-09-19T03:06:58;94762.25;;;17.11;84.39
6389;BME280;3227;42.654;23.360;2023-09-19T03:09:26;94769.16;;;17.11;84.04
6389;BME280;3227;42.654;23.360;2023-09-19T03:11:54;94758.00;;;17.07;84.63
6389;BME280;3227;42.654;23.360;2023-09-19T03:14:22;94755.69;;;16.95;85.50
6389;BME280;3227;42.654;23.360;2023-09-19T03:16:49;94764.59;;;16.81;87.07
6389;BME280;3227;42.654;23.360;2023-09-19T03:19:17;94767.28;;;16.76;87.31
6389;BME280;3227;42.654;23.360;2023-09-19T03:21:46;94764.75;;;16.73;87.91
6389;BME280;3227;42.654;23.360;2023-09-19T03:24:14;94757.09;;;16.68;87.76
6389;BME280;3227;42.654;23.360;2023-09-19T03:26:41;94759.56;;;16.73;87.66
6389;BME280;3227;42.654;23.360;2023-09-19T03:29:10;94755.25;;;16.73;87.95
6389;BME280;3227;42.654;23.360;2023-09-19T03:31:37;94757.88;;;16.72;88.15
6389;BME280;3227;42.654;23.360;2023-09-19T03:34:04;94763.91;;;16.72;88.26
6389;BME280;3227;42.654;23.360;2023-09-19T03:36:30;94753.50;;;16.76;88.00
6389;BME280;3227;42.654;23.360;2023-09-19T03:39:00;94750.84;;;16.79;87.77
6389;BME280;3227;42.654;23.360;2023-09-19T03:41:27;94761.97;;;16.84;87.52
6389;BME280;3227;42.654;23.360;2023-09-19T03:43:54;94767.97;;;16.86;87.29
6389;BME280;3227;42.654;23.360;2023-09-19T03:46:22;94762.75;;;16.87;87.23
6389;BME280;3227;42.654;23.360;2023-09-19T03:48:49;94777.44;;;16.87;87.22
6389;BME280;3227;42.654;23.360;2023-09-19T03:51:15;94773.06;;;16.89;87.15
6389;BME280;3227;42.654;23.360;2023-09-19T03:53:42;94773.13;;;16.86;87.17
6389;BME280;3227;42.654;23.360;2023-09-19T03:56:09;94783.47;;;16.87;87.22
6389;BME280;3227;42.654;23.360;2023-09-19T03:58:36;94777.44;;;16.87;86.99
6389;BME280;3227;42.654;23.360;2023-09-19T04:01:05;94782.44;;;16.94;86.74
6389;BME280;3227;42.654;23.360;2023-09-19T04:03:34;94780.78;;;16.90;86.79
6389;BME280;3227;42.654;23.360;2023-09-19T04:06:11;94781.56;;;16.95;86.74
6389;BME280;3227;42.654;23.360;2023-09-19T04:08:38;94777.13;;;17.02;86.40
6389;BME280;3227;42.654;23.360;2023-09-19T04:11:05;94778.88;;;17.00;86.06
6389;BME280;3227;42.654;23.360;2023-09-19T04:13:32;94783.88;;;17.07;85.92
6389;BME280;3227;42.654;23.360;2023-09-19T04:15:59;94791.56;;;17.12;85.67
6389;BME280;3227;42.654;23.360;2023-09-19T04:18:26;94717.28;;;16.74;85.31
6389;BME280;3227;42.654;23.360;2023-09-19T04:20:54;94792.06;;;17.29;84.88
6389;BME280;3227;42.654;23.360;2023-09-19T04:23:21;94792.69;;;17.39;84.54
6389;BME280;3227;42.654;23.360;2023-09-19T04:25:48;94755.81;;;17.29;83.78
6389;BME280;3227;42.654;23.360;2023-09-19T04:28:16;94795.13;;;17.85;82.60
6389;BME280;3227;42.654;23.360;2023-09-19T04:30:43;94793.69;;;18.09;81.42
6389;BME280;3227;42.654;23.360;2023-09-19T04:33:09;94787.97;;;18.29;79.66
6389;BME280;3227;42.654;23.360;2023-09-19T04:35:37;94785.59;;;18.53;78.67
6389;BME280;3227;42.654;23.360;2023-09-19T04:38:05;94785.69;;;18.83;77.24
6389;BME280;3227;42.654;23.360;2023-09-19T04:40:32;94786.94;;;19.00;75.10
6389;BME280;3227;42.654;23.360;2023-09-19T04:42:59;94787.84;;;19.27;73.11
6389;BME280;3227;42.654;23.360;2023-09-19T04:45:27;94793.31;;;19.49;71.73
6389;BME280;3227;42.654;23.360;2023-09-19T04:47:55;94793.13;;;19.55;70.10
6389;BME280;3227;42.654;23.360;2023-09-19T04:50:21;94739.53;;;18.94;70.85
6389;BME280;3227;42.654;23.360;2023-09-19T04:52:49;94786.91;;;19.02;72.48
6389;BME280;3227;42.654;23.360;2023-09-19T04:55:18;94783.75;;;18.91;72.87
6389;BME280;3227;42.654;23.360;2023-09-19T04:57:47;94790.38;;;19.01;73.02
6389;BME280;3227;42.654;23.360;2023-09-19T05:00:14;94744.38;;;19.05;72.64
6389;BME280;3227;42.654;23.360;2023-09-19T05:02:42;94775.94;;;19.77;71.26
6389;BME280;3227;42.654;23.360;2023-09-19T05:05:10;94773.75;;;20.18;68.93
6389;BME280;3227;42.654;23.360;2023-09-19T05:07:37;94770.16;;;20.48;67.49
6389;BME280;3227;42.654;23.360;2023-09-19T05:10:06;94764.69;;;20.56;65.70
6389;BME280;3227;42.654;23.360;2023-09-19T05:12:35;94773.50;;;20.52;66.65
6389;BME280;3227;42.654;23.360;2023-09-19T05:15:02;94775.09;;;20.56;66.83
6389;BME280;3227;42.654;23.360;2023-09-19T05:17:29;94775.19;;;20.78;66.92
6389;BME280;3227;42.654;23.360;2023-09-19T05:19:56;94776.84;;;21.04;65.47
6389;BME280;3227;42.654;23.360;2023-09-19T05:22:23;94786.44;;;21.03;64.71
6389;BME280;3227;42.654;23.360;2023-09-19T05:24:50;94781.22;;;21.03;64.89
6389;BME280;3227;42.654;23.360;2023-09-19T05:27:18;94771.31;;;21.13;64.93
6389;BME280;3227;42.654;23.360;2023-09-19T05:29:47;94763.13;;;21.23;63.97
6389;BME280;3227;42.654;23.360;2023-09-19T05:32:16;94773.78;;;21.41;63.99
6389;BME280;3227;42.654;23.360;2023-09-19T05:34:43;94770.72;;;21.30;63.49
6389;BME280;3227;42.654;23.360;2023-09-19T05:37:10;94768.00;;;21.33;63.79
6389;BME280;3227;42.654;23.360;2023-09-19T05:39:36;94775.75;;;21.57;63.38
6389;BME280;3227;42.654;23.360;2023-09-19T05:42:04;94777.00;;;21.69;62.05
6389;BME280;3227;42.654;23.360;2023-09-19T05:44:30;94751.31;;;21.13;63.59
6389;BME280;3227;42.654;23.360;2023-09-19T05:47:00;94769.47;;;21.40;63.82
6389;BME280;3227;42.654;23.360;2023-09-19T05:49:26;94751.91;;;21.21;63.62
6389;BME280;3227;42.654;23.360;2023-09-19T05:51:53;94740.56;;;20.99;64.85
6389;BME280;3227;42.654;23.360;2023-09-19T05:54:24;94766.75;;;21.19;64.12
6389;BME280;3227;42.654;23.360;2023-09-19T05:56:51;94761.84;;;21.10;64.61
6389;BME280;3227;42.654;23.360;2023-09-19T05:59:18;94754.03;;;20.87;65.90
6389;BME280;3227;42.654;23.360;2023-09-19T06:01:45;94763.03;;;20.78;66.12
6389;BME280;3227;42.654;23.360;2023-09-19T06:04:14;94762.53;;;20.67;66.25
6389;BME280;3227;42.654;23.360;2023-09-19T06:06:41;94752.66;;;20.52;66.80
6389;BME280;3227;42.654;23.360;2023-09-19T06:09:08;94751.19;;;20.45;66.95
6389;BME280;3227;42.654;23.360;2023-09-19T06:11:34;94738.72;;;20.28;67.20
6389;BME280;3227;42.654;23.360;2023-09-19T06:14:01;94754.09;;;20.61;66.74
6389;BME280;3227;42.654;23.360;2023-09-19T06:19:51;94752.25;;;20.64;66.90
6389;BME280;3227;42.654;23.360;2023-09-19T06:22:18;94757.09;;;20.75;65.95
6389;BME280;3227;42.654;23.360;2023-09-19T06:24:45;94752.56;;;20.80;65.98
6389;BME280;3227;42.654;23.360;2023-09-19T06:27:12;94741.91;;;20.86;66.14
6389;BME280;3227;42.654;23.360;2023-09-19T06:29:39;94666.84;;;20.50;65.54
6389;BME280;3227;42.654;23.360;2023-09-19T06:32:07;94746.09;;;21.13;65.54
6389;BME280;3227;42.654;23.360;2023-09-19T06:34:34;94738.28;;;21.37;64.50
6389;BME280;3227;42.654;23.360;2023-09-19T06:37:02;94738.59;;;21.51;63.55
6389;BME280;3227;42.654;23.360;2023-09-19T06:39:29;94718.63;;;21.28;63.92
6389;BME280;3227;42.654;23.360;2023-09-19T06:41:56;94731.78;;;21.48;64.67
6389;BME280;3227;42.654;23.360;2023-09-19T06:44:23;94745.34;;;21.56;63.96
6389;BME280;3227;42.654;23.360;2023-09-19T06:46:51;94750.56;;;21.56;63.36
6389;BME280;3227;42.654;23.360;2023-09-19T06:49:17;94749.13;;;21.71;63.18
6389;BME280;3227;42.654;23.360;2023-09-19T06:51:44;94746.25;;;21.77;62.12
6389;BME280;3227;42.654;23.360;2023-09-19T06:54:13;94761.75;;;21.37;63.70
6389;BME280;3227;42.654;23.360;2023-09-19T06:56:39;94754.72;;;21.15;64.59
6389;BME280;3227;42.654;23.360;2023-09-19T06:59:06;94758.56;;;20.82;66.09
6389;BME280;3227;42.654;23.360;2023-09-19T07:01:34;94757.25;;;20.70;67.29
6389;BME280;3227;42.654;23.360;2023-09-19T07:04:01;94762.88;;;20.83;66.96
6389;BME280;3227;42.654;23.360;2023-09-19T07:06:28;94748.81;;;20.87;67.34
6389;BME280;3227;42.654;23.360;2023-09-19T07:08:55;94759.25;;;21.10;66.86
6389;BME280;3227;42.654;23.360;2023-09-19T07:11:24;94760.78;;;21.16;66.06
6389;BME280;3227;42.654;23.360;2023-09-19T07:13:50;94765.25;;;20.89;66.08
6389;BME280;3227;42.654;23.360;2023-09-19T07:16:17;94762.88;;;20.83;66.65
6389;BME280;3227;42.654;23.360;2023-09-19T07:18:52;94759.84;;;20.45;68.28
6389;BME280;3227;42.654;23.360;2023-09-19T07:21:20;94760.06;;;20.39;68.34
6389;BME280;3227;42.654;23.360;2023-09-19T07:23:47;94761.34;;;20.26;68.00
6389;BME280;3227;42.654;23.360;2023-09-19T07:26:15;94753.66;;;20.23;68.77
6389;BME280;3227;42.654;23.360;2023-09-19T07:28:43;94764.47;;;20.37;68.35
6389;BME280;3227;42.654;23.360;2023-09-19T07:31:10;94755.53;;;20.44;67.67
6389;BME280;3227;42.654;23.360;2023-09-19T07:33:39;94740.56;;;20.51;66.82
6389;BME280;3227;42.654;23.360;2023-09-19T07:36:10;94771.28;;;20.66;66.83
6389;BME280;3227;42.654;23.360;2023-09-19T07:38:39;94761.34;;;20.52;67.35
6389;BME280;3227;42.654;23.360;2023-09-19T07:41:05;94760.44;;;20.54;66.38
6389;BME280;3227;42.654;23.360;2023-09-19T07:43:34;94761.50;;;20.73;66.46
6389;BME280;3227;42.654;23.360;2023-09-19T07:46:04;94751.75;;;21.01;65.22
6389;BME280;3227;42.654;23.360;2023-09-19T07:48:32;94764.91;;;21.23;64.37
6389;BME280;3227;42.654;23.360;2023-09-19T07:51:02;94759.91;;;21.40;64.18
6389;BME280;3227;42.654;23.360;2023-09-19T07:53:29;94770.44;;;21.59;64.12
6389;BME280;3227;42.654;23.360;2023-09-19T07:56:04;94763.59;;;21.78;62.84
6389;BME280;3227;42.654;23.360;2023-09-19T07:58:31;94731.75;;;21.70;62.12
6389;BME280;3227;42.654;23.360;2023-09-19T08:01:04;94744.16;;;21.65;61.92
6389;BME280;3227;42.654;23.360;2023-09-19T08:03:31;94768.22;;;21.93;61.91
6389;BME280;3227;42.654;23.360;2023-09-19T08:05:59;94770.22;;;22.09;61.79
6389;BME280;3227;42.654;23.360;2023-09-19T08:08:26;94764.13;;;22.30;60.80
6389;BME280;3227;42.654;23.360;2023-09-19T08:10:53;94769.22;;;22.33;60.12
6389;BME280;3227;42.654;23.360;2023-09-19T08:13:22;94752.91;;;22.28;59.93
6389;BME280;3227;42.654;23.360;2023-09-19T08:15:49;94753.72;;;22.08;60.68
6389;BME280;3227;42.654;23.360;2023-09-19T08:18:17;94748.38;;;22.11;60.43
6389;BME280;3227;42.654;23.360;2023-09-19T08:20:49;94744.00;;;22.12;61.38
6389;BME280;3227;42.654;23.360;2023-09-19T08:23:16;94741.59;;;22.27;61.01
6389;BME280;3227;42.654;23.360;2023-09-19T08:25:45;94741.34;;;22.33;59.80
6389;BME280;3227;42.654;23.360;2023-09-19T08:28:12;94738.25;;;22.24;60.20
6389;BME280;3227;42.654;23.360;2023-09-19T08:30:43;94732.47;;;22.37;60.80
6389;BME280;3227;42.654;23.360;2023-09-19T08:33:09;94732.41;;;22.39;59.88
6389;BME280;3227;42.654;23.360;2023-09-19T08:35:38;94729.19;;;22.12;60.87
6389;BME280;3227;42.654;23.360;2023-09-19T08:38:06;94740.28;;;22.17;61.24
6389;BME280;3227;42.654;23.360;2023-09-19T08:40:37;94726.84;;;22.06;61.44
6389;BME280;3227;42.654;23.360;2023-09-19T08:43:05;94739.31;;;22.20;61.40
6389;BME280;3227;42.654;23.360;2023-09-19T08:45:32;94692.72;;;22.11;61.06
6389;BME280;3227;42.654;23.360;2023-09-19T08:50:52;94740.53;;;23.12;58.08
6389;BME280;3227;42.654;23.360;2023-09-19T08:53:26;94731.63;;;23.35;57.63
6389;BME280;3227;42.654;23.360;2023-09-19T08:55:55;94731.53;;;23.56;56.66
6389;BME280;3227;42.654;23.360;2023-09-19T08:58:26;94728.13;;;23.55;56.05
6389;BME280;3227;42.654;23.360;2023-09-19T09:00:56;94734.31;;;23.52;56.07
6389;BME280;3227;42.654;23.360;2023-09-19T09:03:26;94704.69;;;23.33;55.88
6389;BME280;3227;42.654;23.360;2023-09-19T09:05:57;94728.22;;;23.33;55.00
6389;BME280;3227;42.654;23.360;2023-09-19T09:08:25;94723.75;;;23.17;55.65
6389;BME280;3227;42.654;23.360;2023-09-19T09:10:52;94725.75;;;23.11;56.00
6389;BME280;3227;42.654;23.360;2023-09-19T09:13:19;94722.28;;;23.11;56.57
6389;BME280;3227;42.654;23.360;2023-09-19T09:16:02;94725.09;;;23.25;56.39
6389;BME280;3227;42.654;23.360;2023-09-19T09:18:29;94723.78;;;23.35;55.85
6389;BME280;3227;42.654;23.360;2023-09-19T09:20:57;94722.56;;;23.42;55.58
6389;BME280;3227;42.654;23.360;2023-09-19T09:23:26;94717.63;;;23.36;55.33
6389;BME280;3227;42.654;23.360;2023-09-19T09:25:55;94709.00;;;23.34;55.42
6389;BME280;3227;42.654;23.360;2023-09-19T09:28:28;94708.00;;;23.37;55.77
6389;BME280;3227;42.654;23.360;2023-09-19T09:30:56;94691.47;;;23.36;55.43
6389;BME280;3227;42.654;23.360;2023-09-19T09:33:24;94707.66;;;23.44;54.32
6389;BME280;3227;42.654;23.360;2023-09-19T09:35:53;94706.25;;;23.37;55.20
6389;BME280;3227;42.654;23.360;2023-09-19T09:38:25;94699.94;;;23.41;55.24
6389;BME280;3227;42.654;23.360;2023-09-19T09:40:57;94700.81;;;23.61;55.58
6389;BME280;3227;42.654;23.360;2023-09-19T09:43:29;94699.00;;;23.80;54.38
6389;BME280;3227;42.654;23.360;2023-09-19T09:46:13;94641.34;;;23.45;54.77
6389;BME280;3227;42.654;23.360;2023-09-19T09:48:57;94689.47;;;23.79;54.53
6389;BME280;3227;42.654;23.360;2023-09-19T09:51:38;94684.53;;;23.90;54.95
6389;BME280;3227;42.654;23.360;2023-09-19T09:54:12;94632.72;;;23.43;54.36
6389;BME280;3227;42.654;23.360;2023-09-19T09:56:58;94673.59;;;23.46;55.66
6389;BME280;3227;42.654;23.360;2023-09-19T10:02:26;94677.94;;;23.64;55.58
6389;BME280;3227;42.654;23.360;2023-09-19T10:04:59;94671.59;;;23.70;55.28
6389;BME280;3227;42.654;23.360;2023-09-19T10:07:35;94670.84;;;23.85;54.91
6389;BME280;3227;42.654;23.360;2023-09-19T10:10:06;94672.47;;;23.51;55.62
6389;BME280;3227;42.654;23.360;2023-09-19T10:12:43;94679.22;;;23.56;55.70
6389;BME280;3227;42.654;23.360;2023-09-19T10:15:12;94678.03;;;23.44;55.69
6389;BME280;3227;42.654;23.360;2023-09-19T10:17:43;94673.09;;;23.38;56.30
6389;BME280;3227;42.654;23.360;2023-09-19T10:20:12;94661.16;;;23.51;55.91
6389;BME280;3227;42.654;23.360;2023-09-19T10:22:53;94671.41;;;23.73;55.08
6389;BME280;3227;42.654;23.360;2023-09-19T10:25:28;94662.97;;;23.85;55.03
6389;BME280;3227;42.654;23.360;2023-09-19T10:27:57;94667.69;;;23.96;54.35
6389;BME280;3227;42.654;23.360;2023-09-19T10:30:24;94631.25;;;23.74;54.18
6389;BME280;3227;42.654;23.360;2023-09-19T10:32:57;94663.13;;;24.16;53.96
6389;BME280;3227;42.654;23.360;2023-09-19T10:35:26;94662.22;;;24.35;53.21
6389;BME280;3227;42.654;23.360;2023-09-19T10:37:55;94667.31;;;24.38;53.15
6389;BME280;3227;42.654;23.360;2023-09-19T10:40:24;94657.00;;;24.35;53.21
6389;BME280;3227;42.654;23.360;2023-09-19T10:43:01;94645.53;;;24.37;53.27
6389;BME280;3227;42.654;23.360;2023-09-19T10:45:31;94662.91;;;24.38;52.69
6389;BME280;3227;42.654;23.360;2023-09-19T10:47:58;94668.06;;;24.40;52.54
6389;BME280;3227;42.654;23.360;2023-09-19T10:50:27;94654.13;;;24.39;52.53
6389;BME280;3227;42.654;23.360;2023-09-19T10:52:59;94652.22;;;24.43;52.22
6389;BME280;3227;42.654;23.360;2023-09-19T10:55:31;94651.28;;;24.44;52.15
6389;BME280;3227;42.654;23.360;2023-09-19T10:58:02;94645.03;;;24.46;52.12
6389;BME280;3227;42.654;23.360;2023-09-19T11:00:51;94647.56;;;24.48;52.25
6389;BME280;3227;42.654;23.360;2023-09-19T11:03:19;94639.59;;;24.34;52.68
6389;BME280;3227;42.654;23.360;2023-09-19T11:06:04;94644.81;;;24.34;52.82
6389;BME280;3227;42.654;23.360;2023-09-19T11:08:57;94636.72;;;24.38;52.97
6389;BME280;3227;42.654;23.360;2023-09-19T11:11:47;94639.78;;;24.46;52.75
6389;BME280;3227;42.654;23.360;2023-09-19T11:14:40;94636.03;;;24.52;51.79
6389;BME280;3227;42.654;23.360;2023-09-19T11:17:41;94628.31;;;24.49;52.10
6389;BME280;3227;42.654;23.360;2023-09-19T11:20:22;94628.81;;;24.55;52.19
6389;BME280;3227;42.654;23.360;2023-09-19T11:23:23;94627.31;;;24.51;52.30
6389;BME280;3227;42.654;23.360;2023-09-19T11:25:52;94503.28;;;23.69;52.53
6389;BME280;3227;42.654;23.360;2023-09-19T11:28:33;94630.25;;;24.45;52.11
6389;BME280;3227;42.654;23.360;2023-09-19T11:40:12;94610.81;;;24.49;52.45
6389;BME280;3227;42.654;23.360;2023-09-19T11:42:43;94598.94;;;24.59;53.28
6389;BME280;3227;42.654;23.360;2023-09-19T11:48:23;94590.16;;;24.76;52.61
6389;BME280;3227;42.654;23.360;2023-09-19T11:50:52;94521.16;;;24.29;52.10
6389;BME280;3227;42.654;23.360;2023-09-19T11:53:23;94577.78;;;24.62;52.47
6389;BME280;3227;42.654;23.360;2023-09-19T11:55:52;94577.16;;;24.42;52.95
6389;BME280;3227;42.654;23.360;2023-09-19T11:58:19;94574.28;;;24.46;53.08
6389;BME280;3227;42.654;23.360;2023-09-19T12:00:53;94578.59;;;24.47;52.73
6389;BME280;3227;42.654;23.360;2023-09-19T12:03:23;94576.81;;;24.32;53.39
6389;BME280;3227;42.654;23.360;2023-09-19T12:05:53;94573.84;;;24.38;53.80
6389;BME280;3227;42.654;23.360;2023-09-19T12:08:20;94572.88;;;24.56;53.51
6389;BME280;3227;42.654;23.360;2023-09-19T12:10:47;94570.03;;;24.61;53.18
6389;BME280;3227;42.654;23.360;2023-09-19T12:13:19;94563.75;;;24.63;53.21
6389;BME280;3227;42.654;23.360;2023-09-19T12:15:46;94562.41;;;24.72;53.58
6389;BME280;3227;42.654;23.360;2023-09-19T12:18:27;94504.34;;;24.64;52.54
6389;BME280;3227;42.654;23.360;2023-09-19T12:20:55;94551.00;;;25.20;52.24
6389;BME280;3227;42.654;23.360;2023-09-19T12:23:23;94548.19;;;25.39;51.29
6389;BME280;3227;42.654;23.360;2023-09-19T12:25:51;94547.66;;;25.18;50.99
6389;BME280;3227;42.654;23.360;2023-09-19T12:28:25;94547.91;;;25.14;51.49
6389;BME280;3227;42.654;23.360;2023-09-19T12:30:54;94543.75;;;25.25;50.93
6389;BME280;3227;42.654;23.360;2023-09-19T12:33:21;94532.47;;;25.39;51.59
6389;BME280;3227;42.654;23.360;2023-09-19T12:35:51;94536.09;;;25.52;51.12
6389;BME280;3227;42.654;23.360;2023-09-19T12:38:24;94535.88;;;25.55;50.73
6389;BME280;3227;42.654;23.360;2023-09-19T12:40:54;94531.09;;;25.48;50.49
6389;BME280;3227;42.654;23.360;2023-09-19T12:43:24;94526.31;;;25.54;50.63
6389;BME280;3227;42.654;23.360;2023-09-19T12:45:51;94521.41;;;25.64;50.55
6389;BME280;3227;42.654;23.360;2023-09-19T12:48:23;94524.44;;;25.72;50.36
6389;BME280;3227;42.654;23.360;2023-09-19T12:51:04;94513.47;;;25.80;49.79
6389;BME280;3227;42.654;23.360;2023-09-19T12:53:33;94521.81;;;25.86;49.65
6389;BME280;3227;42.654;23.360;2023-09-19T12:56:03;94520.06;;;25.87;49.15
6389;BME280;3227;42.654;23.360;2023-09-19T12:58:47;94525.91;;;25.92;49.01
6389;BME280;3227;42.654;23.360;2023-09-19T13:01:14;94520.16;;;25.85;49.33
6389;BME280;3227;42.654;23.360;2023-09-19T13:03:41;94518.78;;;25.94;48.95
6389;BME280;3227;42.654;23.360;2023-09-19T13:06:08;94515.69;;;26.01;49.03
6389;BME280;3227;42.654;23.360;2023-09-19T13:08:37;94510.78;;;25.95;49.60
6389;BME280;3227;42.654;23.360;2023-09-19T13:11:06;94509.13;;;25.94;49.81
6389;BME280;3227;42.654;23.360;2023-09-19T13:13:37;94468.22;;;25.76;49.76
6389;BME280;3227;42.654;23.360;2023-09-19T13:16:04;94488.13;;;25.94;49.29
6389;BME280;3227;42.654;23.360;2023-09-19T13:18:42;94502.19;;;26.07;49.12
6389;BME280;3227;42.654;23.360;2023-09-19T13:21:10;94498.03;;;26.03;48.83
6389;BME280;3227;42.654;23.360;2023-09-19T13:23:42;94500.41;;;26.08;48.73
6389;BME280;3227;42.654;23.360;2023-09-19T13:26:09;94505.81;;;26.05;48.78
6389;BME280;3227;42.654;23.360;2023-09-19T13:28:38;94454.72;;;25.82;48.94
6389;BME280;3227;42.654;23.360;2023-09-19T13:31:05;94489.59;;;26.12;48.70
6389;BME280;3227;42.654;23.360;2023-09-19T13:33:33;94483.13;;;26.04;48.75
6389;BME280;3227;42.654;23.360;2023-09-19T13:36:01;94477.56;;;25.66;49.86
6389;BME280;3227;42.654;23.360;2023-09-19T13:38:28;94478.94;;;25.57;50.53
6389;BME280;3227;42.654;23.360;2023-09-19T13:40:55;94476.72;;;25.65;50.54
6389;BME280;3227;42.654;23.360;2023-09-19T13:43:21;94464.00;;;25.73;50.31
6389;BME280;3227;42.654;23.360;2023-09-19T13:45:53;94484.44;;;25.83;49.83